Longview, WA (98632)

4:46 AM PDT on August 28, 2016 (GMT -0700)
fRiEdfiSh Weather | | Change Station

Elev 8 ft 46.15 °N, 122.97 °W | Updated 413 days ago

Mostly Cloudy
Mostly Cloudy
55 °F
Feels Like 55 °F
N
0
Wind Variable Wind from NNE
Gusts mph

Today
High -- | Low -- °F
--% Chance of Precip.
Yesterday
High -- | Low -- °F
Precip. -- in
Pressure 30.07 in
Visibility 10.0 miles
Clouds Overcast 2000 ft
Dew Point 54 °F
Humidity 96%
Rainfall in
Snow Depth Not available.
6:28 AM 7:57 PM
Waning Crescent, 16% visible
METAR KKLS 281056Z AUTO 31003KT 10SM OVC020 14/12 A3006 RMK AO2 SLP182 T01390117
Pressure 30.07 in
Visibility 10.0 miles
Clouds Overcast 2000 ft
Dew Point 54 °F
Humidity 96%
Rainfall in
Snow Depth Not available.
6:28 AM 7:57 PM
Waning Crescent, 16% visible
METAR KKLS 281056Z AUTO 31003KT 10SM OVC020 14/12 A3006 RMK AO2 SLP182 T01390117

10-Day Weather Forecast

Almanac

Astronomy

Aug. 28, 2016 Rise Set
Actual Time
Civil Twilight
Nautical Twilight
Astronomical Twilight
Moon
Length of Visible Light
Length of Day
Tomorrow will be .
, % of the Moon is Illuminated

Today's Extremes

State Highs State Lows

Community

WunderPhotos

Upload Photos

1,935,549 photos uploaded!

WunderBlog® & News

Nearby

Air Quality

  Air Quality AQ Index Pollutant
Not available.

Snow Depth

Station Depth Elevation

Earthquake Activity

City Distance Mag. Time & Date
Minimum magnitude displayed is 2.5.

Coastal Water Temperatures

Place Temperature

Stations

Nearby Weather Stations

Station Location Temp. Windchill Dew Point Humidity Wind Precip. Elev Updated Type
                   

Watches & Warnings

There are currently no watches in effect.